This is the latest recevied weather packets stored in our database for station/object KD8OZS. If no packets are shown the sender has not sent any weather packets the latest 10 day(s).
| Time | Temp. | Humidity | Pressure | Rain* | Wind** | Luminosity | Snow |
|---|---|---|---|---|---|---|---|
| 1778080305 | 11.11° C | 69% | 1004 hPa | 0 mm | - | 318 W/m² | - |
| 1778080001 | 10.56° C | 73% | 1004 hPa | 0 mm | - | 332 W/m² | - |
| 1778079699 | 10.56° C | 73% | 1003.7 hPa | 0 mm | - | 356 W/m² | - |
| 1778079395 | 10.56° C | 73% | 1003.5 hPa | 0 mm | - | 317 W/m² | - |
| 1778079092 | 10.56° C | 76% | 1003.4 hPa | 0 mm | - | 337 W/m² | - |
| 1778078790 | 10° C | 75% | 1003.3 hPa | 0 mm | - | 298 W/m² | - |
| 1778078486 | 10° C | 78% | 1003.5 hPa | 0 mm | - | 521 W/m² | - |
| 1778078184 | 10° C | 76% | 1003.5 hPa | 0 mm | - | 291 W/m² | - |
| 1778077882 | 9.44° C | 79% | 1003.5 hPa | 0 mm | - | 265 W/m² | - |
| 1778077580 | 9.44° C | 79% | 1003.6 hPa | 0 mm | - | 245 W/m² | - |
| 1778077278 | 9.44° C | 82% | 1003.4 hPa | 0 mm | - | 205 W/m² | - |
| 1778076975 | 8.89° C | 83% | 1003.4 hPa | 0 mm | - | 244 W/m² | - |
| 1778076673 | 8.89° C | 83% | 1003.2 hPa | 0 mm | - | 243 W/m² | - |
| 1778076370 | 8.89° C | 83% | 1003.2 hPa | 0 mm | - | 214 W/m² | - |
| 1778076068 | 8.33° C | 85% | 1003 hPa | 0 mm | - | 203 W/m² | - |
| 1778075764 | 8.33° C | 86% | 1003.3 hPa | 0 mm | - | 173 W/m² | - |
| 1778075461 | 8.33° C | 88% | 1003.3 hPa | 0 mm | - | 167 W/m² | - |
| 1778075157 | 8.33° C | 89% | 1003.3 hPa | 0 mm | - | 175 W/m² | - |
| 1778074853 | 7.78° C | 89% | 1003.2 hPa | 0 mm | - | 147 W/m² | - |
| 1778074550 | 7.78° C | 90% | 1003.2 hPa | 0 mm | - | 110 W/m² | - |
| 1778074248 | 7.78° C | 91% | 1003 hPa | 0 mm | - | 109 W/m² | - |
| 1778073945 | 7.78° C | 91% | 1003.1 hPa | 0 mm | - | 95 W/m² | - |
| 1778073642 | 7.78° C | 92% | 1003 hPa | 0 mm | - | 90 W/m² | - |
| 1778073339 | 7.78° C | 92% | 1003.1 hPa | 0 mm | - | 90 W/m² | - |
| 1778073035 | 7.78° C | 92% | 1003 hPa | 0 mm | - | 84 W/m² | - |
* Rain latest hour (hover to see other rain measurements)
** Current wind speed in m/s (hover to see current wind gust speed)